Time;durP1;ratioP1;P1;durP2;ratioP2;P2;SDS_P1;SDS_P2;PMS_P1;PMS_P2;Temp;Humidity;BMP_temperature;BMP_pressure;BME280_temperature;BME280_humidity;BME280_pressure;Samples;Min_cycle;Max_cycle;Signal;HPM_P1;HPM_P2
2022/11/29 00:01:57;;;;;;;28.17;13.97;;;8.60;99.90;;;;;;5053722;28;20207;-59
2022/11/29 00:04:24;;;;;;;25.57;13.87;;;8.60;99.90;;;;;;5053846;28;20234;-58
2022/11/29 00:06:52;;;;;;;27.00;14.50;;;8.60;99.90;;;;;;5053554;28;20213;-58
2022/11/29 00:09:19;;;;;;;24.73;13.97;;;8.60;99.90;;;;;;5053677;28;20215;-58
2022/11/29 00:14:29;;;;;;;23.33;13.70;;;8.70;99.90;;;;;;5052914;28;20363;-58
2022/11/29 00:17:00;;;;;;;25.47;13.10;;;8.60;99.90;;;;;;5053666;28;20596;-54
2022/11/29 00:19:27;;;;;;;26.07;14.40;;;8.60;99.90;;;;;;5053691;28;20205;-58
2022/11/29 00:21:55;;;;;;;23.30;13.87;;;8.70;99.90;;;;;;5053573;28;20205;-57
2022/11/29 00:24:23;;;;;;;26.03;14.87;;;8.70;99.90;;;;;;5053637;28;20315;-57
2022/11/29 00:26:50;;;;;;;23.57;13.87;;;8.70;99.90;;;;;;5053289;28;20217;-58
2022/11/29 00:29:16;;;;;;;22.40;12.80;;;8.70;99.90;;;;;;5053584;28;20617;-58
2022/11/29 00:31:44;;;;;;;19.20;11.37;;;8.70;99.90;;;;;;5053536;28;20260;-58
2022/11/29 00:34:11;;;;;;;18.97;11.93;;;8.70;99.90;;;;;;5053433;28;20205;-58
2022/11/29 00:36:38;;;;;;;20.43;11.53;;;8.70;99.90;;;;;;5053070;28;20211;-58
2022/11/29 00:39:10;;;;;;;18.23;11.00;;;8.70;99.90;;;;;;5053026;28;20596;-58
2022/11/29 00:41:37;;;;;;;17.50;10.70;;;8.70;99.90;;;;;;5052929;28;20277;-56
2022/11/29 00:44:03;;;;;;;19.40;11.10;;;8.70;99.90;;;;;;5052961;28;20246;-58
2022/11/29 00:46:30;;;;;;;15.60;10.40;;;8.70;99.90;;;;;;5052852;28;20223;-58
2022/11/29 00:48:56;;;;;;;18.73;11.03;;;8.70;99.90;;;;;;5053152;28;20565;-52
2022/11/29 00:51:23;;;;;;;19.90;11.23;;;8.70;99.90;;;;;;5052950;28;20589;-54
2022/11/29 00:53:50;;;;;;;18.47;11.07;;;8.70;99.90;;;;;;5052747;28;20674;-54
2022/11/29 00:56:18;;;;;;;21.73;11.13;;;8.80;99.90;;;;;;5052602;28;20230;-55
2022/11/29 00:58:44;;;;;;;20.50;11.47;;;8.80;99.90;;;;;;5052846;28;20219;-57
2022/11/29 01:01:11;;;;;;;23.23;12.33;;;8.80;99.90;;;;;;5052895;28;20262;-56
2022/11/29 01:03:38;;;;;;;22.63;12.60;;;8.80;99.90;;;;;;5052297;28;20227;-56
2022/11/29 01:06:08;;;;;;;23.53;13.00;;;8.80;99.90;;;;;;5043995;28;20338;-55
2022/11/29 01:08:35;;;;;;;23.23;11.70;;;8.80;99.90;;;;;;5043949;28;20235;-55
2022/11/29 01:11:05;;;;;;;23.17;12.70;;;8.80;99.90;;;;;;5040901;28;20213;-53
2022/11/29 01:13:33;;;;;;;27.30;12.80;;;8.80;99.90;;;;;;5048797;28;20201;-56
2022/11/29 01:16:00;;;;;;;21.97;12.97;;;8.80;99.90;;;;;;5032385;28;20629;-51
2022/11/29 01:18:29;;;;;;;22.53;13.70;;;8.80;99.90;;;;;;5032611;28;20620;-51
2022/11/29 01:20:57;;;;;;;21.30;12.03;;;8.80;99.90;;;;;;5032488;28;20216;-58
2022/11/29 01:23:24;;;;;;;21.67;12.17;;;8.80;99.90;;;;;;5032016;28;20221;-56
2022/11/29 01:25:59;;;;;;;21.87;11.77;;;8.80;99.90;;;;;;5031544;28;20301;-55
2022/11/29 01:28:26;;;;;;;18.13;10.83;;;8.80;99.90;;;;;;5031964;28;20214;-55
2022/11/29 01:30:54;;;;;;;22.77;12.37;;;8.80;99.90;;;;;;5032333;28;20208;-58
2022/11/29 01:33:22;;;;;;;23.83;12.80;;;8.80;99.90;;;;;;5032290;28;20207;-55
2022/11/29 01:35:49;;;;;;;20.37;11.63;;;8.80;99.90;;;;;;5031993;28;20232;-55
2022/11/29 01:38:17;;;;;;;24.87;12.90;;;8.80;99.90;;;;;;5031841;28;20652;-53
2022/11/29 01:40:43;;;;;;;24.73;13.07;;;8.80;99.90;;;;;;5032419;28;20211;-57
2022/11/29 01:43:16;;;;;;;18.40;11.03;;;8.80;99.90;;;;;;5045080;28;20207;-56
2022/11/29 01:45:43;;;;;;;19.23;11.47;;;8.90;99.90;;;;;;5051700;28;20324;-56
2022/11/29 01:48:13;;;;;;;18.67;11.20;;;8.80;99.90;;;;;;5051761;28;20203;-55
2022/11/29 01:50:41;;;;;;;19.00;11.13;;;8.80;99.90;;;;;;5052301;28;20208;-55
2022/11/29 01:53:09;;;;;;;20.73;12.23;;;8.80;99.90;;;;;;5052056;28;20201;-52
2022/11/29 01:55:39;;;;;;;20.40;11.40;;;8.80;99.90;;;;;;5051795;28;20240;-55
2022/11/29 01:58:07;;;;;;;24.27;11.87;;;8.90;99.90;;;;;;5051513;28;20268;-55
2022/11/29 02:00:35;;;;;;;26.47;12.60;;;8.80;99.90;;;;;;5051612;28;20279;-56
2022/11/29 02:03:08;;;;;;;24.40;12.77;;;8.90;99.90;;;;;;5048006;28;20920;-57
2022/11/29 02:05:38;;;;;;;24.70;12.80;;;8.80;99.90;;;;;;5040123;28;20257;-56
2022/11/29 02:08:08;;;;;;;31.60;12.37;;;8.90;99.90;;;;;;5043296;28;20215;-57
2022/11/29 02:10:49;;;;;;;33.67;12.50;;;8.90;99.90;;;;;;5043321;28;20254;-56
2022/11/29 02:13:24;;;;;;;69.80;14.23;;;8.80;99.90;;;;;;5051322;28;20729;-58
2022/11/29 02:15:59;;;;;;;50.37;14.73;;;8.70;99.90;;;;;;5051566;28;20642;-57
2022/11/29 02:18:36;;;;;;;63.23;14.43;;;8.80;99.90;;;;;;5051791;28;20636;-58
2022/11/29 02:21:21;;;;;;;161.73;17.73;;;8.80;99.90;;;;;;5051588;28;20641;-58
2022/11/29 02:24:29;;;;;;;60.30;15.17;;;8.80;99.90;;;;;;5051464;28;20233;-58
2022/11/29 02:27:10;;;;;;;54.73;16.67;;;8.90;99.90;;;;;;5037917;28;20625;-57
2022/11/29 02:30:18;;;;;;;46.60;16.20;;;8.90;99.90;;;;;;5051448;28;20208;-58
2022/11/29 02:33:19;;;;;;;48.37;16.97;;;8.90;99.90;;;;;;5051725;28;20266;-58
2022/11/29 02:36:11;;;;;;;52.77;16.73;;;8.90;99.90;;;;;;5051503;28;20632;-58
2022/11/29 02:38:57;;;;;;;61.53;17.07;;;8.80;99.90;;;;;;5055382;28;20220;-58
2022/11/29 02:41:36;;;;;;;59.17;16.50;;;8.80;99.90;;;;;;5055439;28;20219;-57
2022/11/29 02:44:22;;;;;;;68.87;17.70;;;8.80;99.90;;;;;;5047527;28;20693;-58
2022/11/29 02:47:01;;;;;;;76.87;20.10;;;8.80;99.90;;;;;;5055394;28;20208;-58
2022/11/29 02:49:43;;;;;;;71.27;17.17;;;8.70;99.90;;;;;;5055366;28;20264;-57
2022/11/29 02:52:18;;;;;;;77.27;18.47;;;8.80;99.90;;;;;;5055116;28;20239;-57
2022/11/29 02:54:52;;;;;;;61.57;16.77;;;8.80;99.90;;;;;;5055024;28;20643;-58
2022/11/29 02:57:25;;;;;;;68.73;16.63;;;8.80;99.90;;;;;;5055134;28;20213;-57
2022/11/29 02:59:59;;;;;;;68.30;19.30;;;8.80;99.90;;;;;;5055154;28;20645;-56
2022/11/29 03:02:32;;;;;;;76.10;19.43;;;8.80;99.90;;;;;;5055176;28;20262;-58
2022/11/29 03:05:09;;;;;;;76.20;17.07;;;8.80;99.90;;;;;;5054838;28;20232;-58
2022/11/29 03:07:47;;;;;;;58.47;15.80;;;8.90;99.90;;;;;;5054669;28;20628;-58
2022/11/29 03:10:30;;;;;;;56.47;16.17;;;8.90;99.90;;;;;;5054931;28;20270;-58
2022/11/29 03:12:58;;;;;;;55.40;16.33;;;8.90;99.90;;;;;;5054764;28;20200;-58
2022/11/29 03:15:30;;;;;;;51.57;15.50;;;8.90;99.90;;;;;;5054577;28;20218;-57
2022/11/29 03:18:18;;;;;;;55.97;16.20;;;8.90;99.90;;;;;;5054498;28;20208;-58
2022/11/29 03:21:04;;;;;;;58.90;17.03;;;8.90;99.90;;;;;;5054721;28;20216;-58
2022/11/29 03:23:37;;;;;;;56.60;16.33;;;8.80;99.90;;;;;;5054590;28;20301;-57
2022/11/29 03:26:07;;;;;;;74.80;17.73;;;8.80;99.90;;;;;;5054182;28;20634;-58
2022/11/29 03:28:39;;;;;;;72.60;17.07;;;8.80;99.90;;;;;;5054876;28;20210;-58
2022/11/29 03:31:11;;;;;;;72.37;16.17;;;8.80;99.90;;;;;;5054243;28;20228;-58
2022/11/29 03:33:49;;;;;;;69.90;16.07;;;8.80;99.90;;;;;;5054612;28;20661;-58
2022/11/29 03:36:29;;;;;;;67.03;15.47;;;8.80;99.90;;;;;;5053844;28;20630;-56
2022/11/29 03:39:00;;;;;;;58.60;15.10;;;8.70;99.90;;;;;;5054377;28;20267;-58
2022/11/29 03:41:32;;;;;;;54.57;14.23;;;8.60;99.90;;;;;;5054192;28;20879;-56
2022/11/29 03:44:03;;;;;;;49.53;13.33;;;8.70;99.90;;;;;;5054130;28;20201;-57
2022/11/29 03:46:36;;;;;;;39.50;12.63;;;8.60;99.90;;;;;;5053981;28;20206;-58
2022/11/29 03:49:07;;;;;;;45.03;13.30;;;8.60;99.90;;;;;;5053242;28;20210;-58
2022/11/29 03:51:49;;;;;;;49.07;13.47;;;8.60;99.90;;;;;;5054012;28;20211;-56
2022/11/29 03:54:22;;;;;;;44.47;13.90;;;8.60;99.90;;;;;;5054143;28;20223;-57
2022/11/29 03:56:49;;;;;;;41.83;13.00;;;8.50;99.90;;;;;;5053700;28;20271;-58
2022/11/29 03:59:29;;;;;;;48.43;13.83;;;8.60;99.90;;;;;;5053781;28;20261;-58
2022/11/29 04:02:20;;;;;;;46.97;12.37;;;8.60;99.90;;;;;;5053991;28;20266;-57
2022/11/29 04:05:27;;;;;;;33.43;11.93;;;8.60;99.90;;;;;;5053971;28;20291;-57
2022/11/29 04:08:13;;;;;;;38.30;12.00;;;8.60;99.90;;;;;;5053443;28;20205;-58
2022/11/29 04:11:07;;;;;;;38.53;11.93;;;8.60;99.90;;;;;;5053827;28;20207;-58
2022/11/29 04:13:56;;;;;;;43.10;11.80;;;8.50;99.90;;;;;;5053878;28;20206;-56
2022/11/29 04:16:52;;;;;;;44.80;14.10;;;8.50;99.90;;;;;;5053692;28;20210;-55
2022/11/29 04:19:53;;;;;;;49.53;14.40;;;8.40;99.90;;;;;;5053858;28;20257;-56
2022/11/29 04:22:32;;;;;;;79.00;14.37;;;8.50;99.90;;;;;;5053412;28;20669;-57
2022/11/29 04:25:40;;;;;;;96.87;15.13;;;8.40;99.90;;;;;;5053612;28;20233;-57
2022/11/29 04:28:32;;;;;;;134.90;16.77;;;8.30;99.90;;;;;;5053335;28;20667;-54
2022/11/29 04:31:07;;;;;;;181.90;18.37;;;8.40;99.90;;;;;;5050240;28;20628;-56
2022/11/29 04:34:13;;;;;;;97.27;17.10;;;8.40;99.90;;;;;;5042434;28;20212;-57
2022/11/29 04:37:06;;;;;;;162.80;18.20;;;8.40;99.90;;;;;;5031367;28;20210;-57
2022/11/29 04:39:58;;;;;;;145.30;20.70;;;8.50;99.90;;;;;;5044520;28;20709;-55
2022/11/29 04:42:49;;;;;;;71.27;20.43;;;8.40;99.90;;;;;;5048566;28;20203;-58
2022/11/29 04:45:49;;;;;;;67.50;18.37;;;8.50;99.90;;;;;;5048303;28;20567;-57
2022/11/29 04:48:32;;;;;;;64.20;21.30;;;8.40;99.90;;;;;;5047877;28;20587;-54
2022/11/29 04:51:12;;;;;;;75.03;21.83;;;8.30;99.90;;;;;;5053301;28;20261;-57
2022/11/29 04:53:58;;;;;;;85.17;22.27;;;8.30;99.90;;;;;;5052798;28;20205;-56
2022/11/29 04:56:32;;;;;;;69.87;21.53;;;8.40;99.90;;;;;;5052923;28;20209;-58
2022/11/29 04:59:05;;;;;;;72.73;21.87;;;8.30;99.90;;;;;;5052795;28;20260;-56
2022/11/29 05:01:41;;;;;;;78.90;21.20;;;8.30;99.90;;;;;;5052807;28;20678;-55
2022/11/29 05:04:17;;;;;;;69.90;19.00;;;8.30;99.90;;;;;;5052562;28;20213;-54
2022/11/29 05:06:51;;;;;;;83.00;22.43;;;8.30;99.90;;;;;;5052533;28;20289;-53
2022/11/29 05:09:26;;;;;;;68.63;18.77;;;8.30;99.90;;;;;;5052672;28;20205;-53
2022/11/29 05:12:03;;;;;;;84.43;21.90;;;8.30;99.90;;;;;;5052845;28;20197;-58
2022/11/29 05:14:44;;;;;;;88.43;20.40;;;8.30;99.90;;;;;;5052298;28;20222;-57
2022/11/29 05:17:38;;;;;;;68.37;20.50;;;8.30;99.90;;;;;;5052234;28;20672;-58
2022/11/29 05:20:18;;;;;;;70.37;20.37;;;8.20;99.90;;;;;;5052696;28;20210;-55
2022/11/29 05:22:56;;;;;;;75.83;20.90;;;8.30;99.90;;;;;;5052231;28;20214;-56
2022/11/29 05:25:36;;;;;;;64.67;18.63;;;8.30;99.90;;;;;;5052555;28;20233;-57
2022/11/29 05:28:08;;;;;;;63.47;19.83;;;8.30;99.90;;;;;;5052510;28;20213;-55
2022/11/29 05:30:55;;;;;;;60.50;19.13;;;8.30;99.90;;;;;;5052391;28;20205;-56
2022/11/29 05:33:34;;;;;;;62.37;18.87;;;8.30;99.90;;;;;;5052018;28;20238;-58
2022/11/29 05:36:13;;;;;;;67.07;19.93;;;8.40;99.90;;;;;;5051997;28;20592;-59
2022/11/29 05:39:01;;;;;;;67.60;19.67;;;8.30;99.90;;;;;;5052032;28;20215;-58
2022/11/29 05:41:51;;;;;;;60.43;19.50;;;8.30;99.90;;;;;;5051939;28;20207;-58
2022/11/29 05:44:25;;;;;;;57.63;18.70;;;8.20;99.90;;;;;;5046250;28;20232;-59
2022/11/29 05:46:56;;;;;;;65.90;19.10;;;8.20;99.90;;;;;;5051879;28;20262;-59
2022/11/29 05:49:34;;;;;;;64.90;19.97;;;8.20;99.90;;;;;;5052144;28;20257;-59
2022/11/29 05:52:15;;;;;;;73.20;20.40;;;8.20;99.90;;;;;;5051980;28;20595;-58
2022/11/29 05:54:51;;;;;;;57.30;18.80;;;8.20;99.90;;;;;;5052093;28;20719;-59
2022/11/29 05:57:28;;;;;;;67.83;18.87;;;8.20;99.90;;;;;;5051833;28;20725;-59
2022/11/29 05:59:57;;;;;;;66.63;19.50;;;8.30;99.90;;;;;;5051941;28;20210;-57
2022/11/29 06:02:39;;;;;;;67.90;19.63;;;8.30;99.90;;;;;;5051834;28;20212;-59
2022/11/29 06:05:13;;;;;;;56.27;19.33;;;8.30;99.90;;;;;;5051802;28;20222;-59
2022/11/29 06:07:47;;;;;;;65.40;21.10;;;8.30;99.90;;;;;;5051539;28;20299;-59
2022/11/29 06:10:16;;;;;;;55.17;19.07;;;8.30;99.90;;;;;;5051541;28;20214;-59
2022/11/29 06:12:54;;;;;;;66.77;21.77;;;8.40;99.90;;;;;;5051045;28;20200;-58
2022/11/29 06:15:57;;;;;;;63.07;19.33;;;8.30;99.90;;;;;;5051715;28;20226;-59
2022/11/29 06:18:45;;;;;;;62.63;19.07;;;8.40;99.90;;;;;;5051695;28;20237;-59
2022/11/29 06:21:22;;;;;;;64.27;19.13;;;8.40;99.90;;;;;;5051526;28;20207;-59
2022/11/29 06:24:15;;;;;;;71.33;20.20;;;8.30;99.90;;;;;;5051776;28;20224;-58
2022/11/29 06:27:01;;;;;;;53.70;20.37;;;8.30;99.90;;;;;;5051377;28;20228;-59
2022/11/29 06:29:37;;;;;;;66.40;19.37;;;8.30;99.90;;;;;;5051472;28;20213;-59
2022/11/29 06:32:18;;;;;;;59.33;21.10;;;8.20;99.90;;;;;;5051640;28;20218;-59
2022/11/29 06:34:53;;;;;;;62.47;19.60;;;8.20;99.90;;;;;;5051430;28;20649;-59
2022/11/29 06:37:27;;;;;;;64.00;20.23;;;8.20;99.90;;;;;;5051204;28;20276;-59
2022/11/29 06:39:54;;;;;;;57.27;20.53;;;8.20;99.90;;;;;;5051399;28;20261;-59
2022/11/29 06:42:21;;;;;;;60.00;19.83;;;8.20;99.90;;;;;;5051591;28;20204;-59
2022/11/29 06:44:48;;;;;;;55.83;20.07;;;8.20;99.90;;;;;;5051138;28;20276;-59
2022/11/29 06:47:23;;;;;;;48.80;19.07;;;8.20;99.90;;;;;;5051447;28;20205;-59
2022/11/29 06:49:57;;;;;;;54.33;19.33;;;8.30;99.90;;;;;;5051555;28;20242;-56
2022/11/29 06:52:31;;;;;;;50.00;19.33;;;8.30;99.90;;;;;;5051407;28;20208;-59
2022/11/29 06:55:12;;;;;;;55.70;18.63;;;8.30;99.90;;;;;;5051180;28;20225;-58
2022/11/29 06:57:54;;;;;;;49.63;17.13;;;8.20;99.90;;;;;;5051442;28;20209;-59
2022/11/29 07:00:24;;;;;;;53.27;18.27;;;8.20;99.90;;;;;;5051303;28;20669;-59
2022/11/29 07:03:06;;;;;;;61.20;18.97;;;8.10;99.90;;;;;;5051230;28;20234;-59
2022/11/29 07:05:35;;;;;;;38.80;16.83;;;8.10;99.90;;;;;;5051119;28;20230;-59
2022/11/29 07:08:04;;;;;;;45.93;17.80;;;8.10;99.90;;;;;;5051121;28;20328;-60
2022/11/29 07:10:34;;;;;;;50.43;17.57;;;8.10;99.90;;;;;;5051077;28;20209;-60
2022/11/29 07:13:01;;;;;;;50.53;17.47;;;8.00;99.90;;;;;;5051142;28;20209;-59
2022/11/29 07:15:28;;;;;;;55.43;18.87;;;8.00;99.90;;;;;;5050826;28;20217;-60
2022/11/29 07:18:11;;;;;;;46.67;18.70;;;8.00;99.90;;;;;;5050833;28;20669;-60
2022/11/29 07:20:50;;;;;;;54.60;19.70;;;8.00;99.90;;;;;;5051122;28;20202;-60
2022/11/29 07:23:28;;;;;;;52.60;17.60;;;8.00;99.90;;;;;;5052020;28;20213;-60
2022/11/29 07:26:05;;;;;;;47.60;19.97;;;8.00;99.90;;;;;;5054432;28;20230;-60
2022/11/29 07:28:42;;;;;;;44.73;18.23;;;8.00;99.90;;;;;;5054721;28;20208;-60
2022/11/29 07:31:18;;;;;;;56.03;19.20;;;8.00;99.90;;;;;;5054655;28;20260;-59
2022/11/29 07:33:58;;;;;;;46.63;18.70;;;8.00;99.90;;;;;;5054500;28;20255;-60
2022/11/29 07:36:38;;;;;;;48.73;17.57;;;8.00;99.90;;;;;;5054306;28;20210;-59
2022/11/29 07:39:21;;;;;;;55.43;18.37;;;8.00;99.90;;;;;;5054325;28;20699;-59
2022/11/29 07:41:58;;;;;;;49.73;16.87;;;8.00;99.90;;;;;;5054360;28;20206;-59
2022/11/29 07:44:33;;;;;;;44.03;16.53;;;8.10;99.90;;;;;;5053932;28;20229;-60
2022/11/29 07:47:00;;;;;;;52.00;17.80;;;8.10;99.90;;;;;;5054399;28;20252;-60
2022/11/29 07:49:27;;;;;;;43.23;16.83;;;8.10;99.90;;;;;;5054248;28;20636;-59
2022/11/29 07:51:55;;;;;;;56.57;19.90;;;8.20;99.90;;;;;;5054314;28;20207;-59
2022/11/29 07:54:23;;;;;;;50.93;18.70;;;8.20;99.90;;;;;;5054144;28;20228;-59
2022/11/29 07:56:50;;;;;;;43.80;17.43;;;8.20;99.90;;;;;;5053858;28;20210;-59
2022/11/29 07:59:17;;;;;;;51.30;17.90;;;8.20;99.90;;;;;;5054292;28;20216;-60
2022/11/29 08:01:44;;;;;;;58.93;21.27;;;8.20;99.90;;;;;;5053952;28;20294;-57
2022/11/29 08:04:10;;;;;;;52.30;18.17;;;8.20;99.90;;;;;;5053883;28;20211;-59
2022/11/29 08:06:37;;;;;;;50.23;17.47;;;8.10;99.90;;;;;;5053423;28;20297;-60
2022/11/29 08:09:06;;;;;;;46.77;18.37;;;8.20;99.90;;;;;;5053806;28;20209;-59
2022/11/29 08:11:33;;;;;;;49.27;18.73;;;8.10;99.90;;;;;;5053485;28;20242;-59
2022/11/29 08:14:01;;;;;;;44.17;17.07;;;8.10;99.90;;;;;;5045505;28;20251;-59
2022/11/29 08:16:28;;;;;;;57.20;17.67;;;8.10;99.90;;;;;;5053624;28;20209;-59
2022/11/29 08:18:55;;;;;;;47.73;17.07;;;8.20;99.90;;;;;;5053528;28;20207;-58
2022/11/29 08:21:21;;;;;;;43.00;16.87;;;8.20;99.90;;;;;;5052929;28;20212;-60
2022/11/29 08:23:49;;;;;;;53.13;16.90;;;8.20;99.90;;;;;;5053424;28;20217;-59
2022/11/29 08:26:18;;;;;;;47.10;16.73;;;8.20;99.90;;;;;;5053064;28;20226;-60
2022/11/29 08:28:45;;;;;;;47.27;17.60;;;8.20;99.90;;;;;;5053433;28;20254;-60
2022/11/29 08:31:12;;;;;;;49.60;17.97;;;8.30;99.90;;;;;;5053425;28;20212;-60
2022/11/29 08:33:41;;;;;;;51.53;17.87;;;8.30;99.90;;;;;;5052995;28;20286;-59
2022/11/29 08:36:10;;;;;;;53.93;18.27;;;8.40;99.90;;;;;;5052954;28;20305;-59
2022/11/29 08:38:38;;;;;;;54.53;18.47;;;8.20;99.90;;;;;;5052985;28;20682;-60
2022/11/29 08:41:06;;;;;;;50.37;18.03;;;8.30;99.90;;;;;;5053346;28;20213;-58
2022/11/29 08:43:35;;;;;;;60.07;19.83;;;8.30;99.90;;;;;;5052837;28;20204;-59
2022/11/29 08:46:02;;;;;;;47.23;18.70;;;8.40;99.90;;;;;;5032862;28;20227;-60
2022/11/29 08:48:28;;;;;;;50.87;18.83;;;8.40;99.90;;;;;;5033016;28;20217;-60
2022/11/29 08:50:56;;;;;;;49.07;19.33;;;8.40;99.90;;;;;;5033039;28;20570;-60
2022/11/29 08:53:40;;;;;;;46.23;18.70;;;8.40;99.90;;;;;;5033339;28;20213;-57
2022/11/29 08:56:08;;;;;;;50.30;19.50;;;8.50;99.90;;;;;;5032742;28;20734;-57
2022/11/29 08:58:36;;;;;;;47.47;20.37;;;8.50;99.90;;;;;;5033076;28;20280;-60
2022/11/29 09:01:03;;;;;;;57.60;19.10;;;8.50;99.90;;;;;;5032650;28;20243;-59
2022/11/29 09:06:16;;;;;;;54.20;19.87;;;8.50;99.90;;;;;;5032357;28;20616;-59
2022/11/29 09:08:44;;;;;;;47.33;18.87;;;8.50;99.90;;;;;;5033006;28;20263;-59
2022/11/29 09:11:13;;;;;;;45.87;18.80;;;8.60;99.90;;;;;;5032705;28;20221;-59
2022/11/29 09:13:41;;;;;;;48.70;18.03;;;8.60;99.90;;;;;;5049836;28;20295;-57
2022/11/29 09:16:09;;;;;;;52.27;18.40;;;8.60;99.90;;;;;;5051923;28;20228;-60
2022/11/29 09:18:37;;;;;;;49.80;19.67;;;8.60;99.90;;;;;;5052618;28;20246;-59
2022/11/29 09:21:06;;;;;;;56.73;18.07;;;8.60;99.90;;;;;;5052856;28;20233;-59
2022/11/29 09:23:32;;;;;;;48.20;16.43;;;8.60;99.90;;;;;;5052250;28;20213;-59
2022/11/29 09:25:59;;;;;;;48.30;18.17;;;8.70;99.90;;;;;;5052008;28;20229;-59
2022/11/29 09:28:26;;;;;;;42.47;17.47;;;8.70;99.90;;;;;;5052397;28;20680;-58
2022/11/29 09:30:54;;;;;;;51.33;17.97;;;8.70;99.90;;;;;;5052316;28;20213;-59
2022/11/29 09:33:21;;;;;;;51.13;18.40;;;8.80;99.90;;;;;;5052500;28;20219;-58
2022/11/29 09:35:48;;;;;;;51.70;18.20;;;8.80;99.90;;;;;;5051780;28;20236;-57
2022/11/29 09:38:15;;;;;;;42.63;17.40;;;8.70;99.90;;;;;;5051533;28;20271;-57
2022/11/29 09:40:48;;;;;;;52.37;18.73;;;8.60;99.90;;;;;;5052113;28;20212;-59
2022/11/29 09:43:23;;;;;;;47.07;17.60;;;8.60;99.90;;;;;;5051956;28;20738;-59
2022/11/29 09:45:58;;;;;;;41.47;16.97;;;8.60;99.90;;;;;;5051002;28;20231;-59
2022/11/29 09:49:03;;;;;;;54.77;18.63;;;8.60;99.90;;;;;;5052098;28;20205;-59
2022/11/29 09:51:35;;;;;;;52.60;18.70;;;8.60;99.90;;;;;;4970777;28;20210;-60
2022/11/29 09:54:15;;;;;;;57.23;18.57;;;8.70;99.90;;;;;;5035672;28;20212;-57
2022/11/29 09:56:44;;;;;;;58.70;18.90;;;8.60;99.90;;;;;;5051623;28;20216;-59
2022/11/29 09:59:16;;;;;;;53.73;18.63;;;8.50;99.90;;;;;;5052020;28;20216;-59
2022/11/29 10:01:48;;;;;;;51.97;18.70;;;8.50;99.90;;;;;;5051817;28;20213;-58
2022/11/29 10:04:18;;;;;;;49.37;17.73;;;8.50;99.90;;;;;;5051837;28;20213;-58
2022/11/29 10:06:53;;;;;;;61.83;18.47;;;8.50;99.90;;;;;;5051658;28;20229;-57
2022/11/29 10:09:23;;;;;;;44.07;18.10;;;8.50;99.90;;;;;;5051949;28;20208;-57
2022/11/29 10:12:02;;;;;;;57.57;19.67;;;8.60;99.90;;;;;;5051864;28;20626;-60
2022/11/29 10:14:34;;;;;;;48.97;16.30;;;8.60;99.90;;;;;;5051453;28;20265;-59
2022/11/29 10:17:07;;;;;;;52.43;17.23;;;8.60;99.90;;;;;;5051510;28;20259;-60
2022/11/29 10:19:38;;;;;;;53.33;16.93;;;8.70;99.90;;;;;;5051585;28;20207;-57
2022/11/29 10:22:12;;;;;;;49.57;16.73;;;8.60;99.90;;;;;;5051517;28;20268;-59
2022/11/29 10:24:42;;;;;;;52.47;16.33;;;8.60;99.90;;;;;;5051609;28;20233;-59
2022/11/29 10:27:13;;;;;;;52.57;15.43;;;8.60;99.90;;;;;;5051273;28;20808;-60
2022/11/29 10:29:40;;;;;;;47.73;15.57;;;8.60;99.90;;;;;;5051838;28;20226;-59
2022/11/29 10:32:13;;;;;;;51.03;16.23;;;8.50;99.90;;;;;;5051441;28;20678;-59
2022/11/29 10:34:41;;;;;;;48.53;14.90;;;8.60;99.90;;;;;;5051551;28;20597;-60
2022/11/29 10:37:13;;;;;;;45.60;14.50;;;8.50;99.90;;;;;;5051109;28;20213;-58
2022/11/29 10:39:43;;;;;;;47.97;15.80;;;8.60;99.90;;;;;;5051538;28;20216;-59
2022/11/29 10:44:58;;;;;;;45.40;16.13;;;8.60;99.90;;;;;;5050384;28;20245;-60
2022/11/29 10:47:27;;;;;;;46.37;14.53;;;8.60;99.90;;;;;;5050991;28;20236;-59
2022/11/29 10:49:54;;;;;;;35.60;12.57;;;8.70;99.90;;;;;;5051296;28;20209;-60
2022/11/29 10:52:22;;;;;;;41.67;14.23;;;8.80;99.90;;;;;;5051471;28;20275;-59
2022/11/29 10:54:52;;;;;;;46.53;14.63;;;8.80;99.90;;;;;;5051902;28;20572;-59
2022/11/29 10:57:21;;;;;;;37.93;14.03;;;8.70;99.90;;;;;;5052957;28;20667;-59
2022/11/29 10:59:59;;;;;;;50.27;15.37;;;8.70;99.90;;;;;;5055767;28;20215;-59
2022/11/29 11:02:28;;;;;;;50.23;17.40;;;8.70;99.90;;;;;;5055302;28;20271;-57
2022/11/29 11:04:55;;;;;;;50.33;18.13;;;8.70;99.90;;;;;;5054933;28;20637;-60
2022/11/29 11:07:26;;;;;;;51.23;18.33;;;8.70;99.90;;;;;;5054817;28;20230;-60
2022/11/29 11:09:55;;;;;;;50.40;19.70;;;8.70;99.90;;;;;;5055143;28;20695;-59
2022/11/29 11:12:25;;;;;;;67.87;22.03;;;8.70;99.90;;;;;;5054896;28;20259;-59
2022/11/29 11:14:51;;;;;;;69.93;23.30;;;8.80;99.90;;;;;;5054541;28;20236;-59
2022/11/29 11:17:25;;;;;;;69.20;23.50;;;8.70;99.90;;;;;;5054520;28;20210;-58
2022/11/29 11:19:59;;;;;;;71.57;23.20;;;8.60;99.90;;;;;;5054879;28;20215;-60
2022/11/29 11:22:27;;;;;;;58.50;20.23;;;8.60;99.90;;;;;;5054802;28;20212;-60
2022/11/29 11:24:59;;;;;;;66.47;20.47;;;8.60;99.90;;;;;;5054738;28;20273;-60
2022/11/29 11:27:31;;;;;;;68.97;22.00;;;8.50;99.90;;;;;;5054280;28;20316;-60
2022/11/29 11:29:58;;;;;;;76.60;22.93;;;8.50;99.90;;;;;;5054888;28;20215;-59
2022/11/29 11:32:25;;;;;;;66.73;23.13;;;8.60;99.90;;;;;;5055048;28;20211;-59
2022/11/29 11:34:53;;;;;;;78.17;25.37;;;8.60;99.90;;;;;;5054213;28;20286;-59
2022/11/29 11:37:24;;;;;;;78.73;24.07;;;8.50;99.90;;;;;;5054209;28;20207;-60
2022/11/29 11:39:53;;;;;;;90.50;25.80;;;8.30;99.90;;;;;;5054364;28;20563;-59
2022/11/29 11:42:36;;;;;;;91.40;27.03;;;8.30;99.90;;;;;;5050930;28;20218;-59
2022/11/29 11:45:05;;;;;;;94.00;26.53;;;8.40;99.90;;;;;;5054051;28;20227;-60
2022/11/29 11:47:35;;;;;;;104.87;29.53;;;8.50;99.90;;;;;;5054120;28;20223;-59
2022/11/29 11:50:12;;;;;;;111.00;30.53;;;8.50;99.90;;;;;;5054131;28;20628;-59
2022/11/29 11:52:44;;;;;;;110.43;29.23;;;8.60;99.90;;;;;;5054417;28;20262;-59
2022/11/29 11:55:29;;;;;;;118.23;30.53;;;8.50;99.90;;;;;;5054169;28;20228;-59
2022/11/29 11:58:02;;;;;;;123.17;30.87;;;8.50;99.90;;;;;;5054155;28;20204;-60
2022/11/29 12:00:44;;;;;;;114.30;30.13;;;8.50;99.90;;;;;;5054100;28;20210;-60
2022/11/29 12:03:33;;;;;;;126.50;30.50;;;8.60;99.90;;;;;;5054170;28;20213;-59
2022/11/29 12:06:12;;;;;;;123.83;30.73;;;8.60;99.90;;;;;;5053874;28;20608;-60
2022/11/29 12:08:40;;;;;;;112.30;30.70;;;8.70;99.90;;;;;;5053343;28;20204;-60
2022/11/29 12:11:12;;;;;;;125.67;29.63;;;8.60;99.90;;;;;;5053789;28;20207;-60
2022/11/29 12:13:43;;;;;;;126.73;29.83;;;8.40;99.90;;;;;;5053408;28;20212;-59
2022/11/29 12:16:15;;;;;;;120.57;30.60;;;8.60;99.90;;;;;;5053515;28;20281;-59
2022/11/29 12:18:47;;;;;;;123.43;30.63;;;8.60;99.90;;;;;;5053795;28;20217;-56
2022/11/29 12:21:16;;;;;;;125.43;31.30;;;8.50;99.90;;;;;;5054017;28;20209;-60
2022/11/29 12:23:49;;;;;;;124.87;31.97;;;8.60;99.90;;;;;;5053442;28;20275;-60
2022/11/29 12:26:20;;;;;;;137.67;31.53;;;8.50;99.90;;;;;;5053395;28;20240;-60
2022/11/29 12:28:47;;;;;;;121.07;32.67;;;8.60;99.90;;;;;;5053468;28;20582;-59
2022/11/29 12:31:36;;;;;;;137.10;33.10;;;8.70;99.90;;;;;;5053789;28;20210;-59
2022/11/29 12:34:12;;;;;;;137.20;32.70;;;8.50;99.90;;;;;;5053401;28;20250;-59
2022/11/29 12:36:46;;;;;;;131.03;30.67;;;8.50;99.90;;;;;;5052993;28;20209;-59
2022/11/29 12:39:25;;;;;;;130.83;30.80;;;8.50;99.90;;;;;;5053367;28;20211;-59
2022/11/29 12:41:57;;;;;;;131.57;30.07;;;8.60;99.90;;;;;;5053293;28;20253;-60
2022/11/29 12:44:42;;;;;;;127.33;30.43;;;8.50;99.90;;;;;;5052742;28;20635;-58
2022/11/29 12:47:22;;;;;;;129.70;31.07;;;8.60;99.90;;;;;;5052919;28;20239;-59
2022/11/29 12:49:59;;;;;;;121.87;30.03;;;8.50;99.90;;;;;;5053029;28;20215;-59
2022/11/29 12:52:35;;;;;;;130.23;31.23;;;8.60;99.90;;;;;;5052961;28;20231;-59
2022/11/29 12:55:16;;;;;;;138.47;31.67;;;8.60;99.90;;;;;;5053104;28;20231;-60
2022/11/29 12:57:51;;;;;;;118.77;32.13;;;8.60;99.90;;;;;;5052868;28;20198;-57
2022/11/29 13:00:19;;;;;;;131.13;31.53;;;8.60;99.90;;;;;;5053016;28;20273;-59
2022/11/29 13:02:59;;;;;;;132.20;32.20;;;8.50;99.90;;;;;;5052750;28;20275;-60
2022/11/29 13:05:40;;;;;;;121.17;34.70;;;8.60;99.90;;;;;;5052635;28;20223;-60
2022/11/29 13:08:37;;;;;;;129.37;32.70;;;8.60;99.90;;;;;;5052872;28;20277;-59
2022/11/29 13:11:13;;;;;;;129.30;34.83;;;8.60;99.90;;;;;;5052863;28;20207;-60
2022/11/29 13:13:42;;;;;;;127.43;30.30;;;8.60;99.90;;;;;;5052908;28;20208;-58
2022/11/29 13:16:23;;;;;;;136.43;33.97;;;8.50;99.90;;;;;;5052990;28;20230;-58
2022/11/29 13:18:58;;;;;;;130.50;32.17;;;8.40;99.90;;;;;;5052472;28;20208;-59
2022/11/29 13:21:30;;;;;;;111.60;29.90;;;8.40;99.90;;;;;;5052723;28;20212;-59